createdAt,value
2018-06-29T00:00:48.610Z,0
2018-06-29T00:01:48.597Z,0
2018-06-29T00:02:48.854Z,0
2018-06-29T00:03:48.901Z,0
2018-06-29T00:04:48.602Z,0
2018-06-29T00:05:48.597Z,0
2018-06-29T00:06:48.378Z,0
2018-06-29T00:07:48.362Z,0
2018-06-29T00:08:48.606Z,0
2018-06-29T00:09:48.133Z,0
2018-06-29T00:10:48.622Z,0
2018-06-29T00:11:48.353Z,0
2018-06-29T00:12:48.863Z,0
2018-06-29T00:13:48.609Z,0
2018-06-29T00:14:48.879Z,0
2018-06-29T00:15:48.609Z,0
2018-06-29T00:16:48.895Z,0
2018-06-29T00:17:48.876Z,0
2018-06-29T00:18:48.696Z,0
2018-06-29T00:19:48.887Z,0
2018-06-29T00:20:48.635Z,0
2018-06-29T00:21:48.865Z,0
2018-06-29T00:22:48.363Z,0
2018-06-29T00:23:48.114Z,0
2018-06-29T00:24:48.622Z,0
2018-06-29T00:25:48.622Z,0
2018-06-29T00:26:48.432Z,0
2018-06-29T00:27:48.380Z,0
2018-06-29T00:28:48.624Z,0
2018-06-29T00:29:48.878Z,0
2018-06-29T00:30:48.635Z,0
2018-06-29T00:31:48.896Z,0
2018-06-29T00:32:48.637Z,0
2018-06-29T00:33:48.391Z,0
2018-06-29T00:34:48.900Z,0
2018-06-29T00:35:48.623Z,0
2018-06-29T00:36:48.439Z,0
2018-06-29T00:37:48.641Z,0
2018-06-29T00:38:48.394Z,0
2018-06-29T00:39:48.402Z,0
2018-06-29T00:40:48.894Z,0
2018-06-29T00:41:48.927Z,0
2018-06-29T00:42:48.486Z,0
2018-06-29T00:43:48.661Z,0
2018-06-29T00:44:48.655Z,0
2018-06-29T00:45:49.701Z,0
2018-06-29T00:46:48.403Z,0
2018-06-29T00:47:48.932Z,0
2018-06-29T00:48:48.898Z,0
2018-06-29T00:49:48.396Z,0
2018-06-29T00:50:48.414Z,0
2018-06-29T00:51:48.898Z,0
2018-06-29T00:52:48.648Z,0
2018-06-29T00:53:48.390Z,0
2018-06-29T00:54:48.475Z,0
2018-06-29T00:55:48.655Z,0
2018-06-29T00:56:48.398Z,0
2018-06-29T00:57:48.915Z,0
2018-06-29T00:58:48.412Z,0
2018-06-29T00:59:48.395Z,0
2018-06-29T01:00:48.931Z,0
2018-06-29T01:01:48.914Z,0
2018-06-29T01:02:48.659Z,0
2018-06-29T01:03:48.655Z,0
2018-06-29T01:04:48.415Z,0
2018-06-29T01:05:48.414Z,0
2018-06-29T01:06:48.416Z,0
2018-06-29T01:07:48.404Z,0
2018-06-29T01:08:48.666Z,0
2018-06-29T01:09:48.418Z,0
2018-06-29T01:10:48.676Z,0
2018-06-29T01:11:48.414Z,0
2018-06-29T01:12:48.439Z,0
2018-06-29T01:13:48.762Z,0
2018-06-29T01:14:48.924Z,0
2018-06-29T01:15:48.420Z,0
2018-06-29T01:16:48.962Z,0
2018-06-29T01:17:48.507Z,0
2018-06-29T01:18:49.040Z,0
2018-06-29T01:19:48.438Z,0
2018-06-29T01:20:48.440Z,0
2018-06-29T01:21:48.679Z,0
2018-06-29T01:22:48.676Z,0
2018-06-29T01:23:48.983Z,0
2018-06-29T01:24:48.962Z,0
2018-06-29T01:25:48.678Z,0
2018-06-29T01:26:48.681Z,0
2018-06-29T01:27:48.425Z,0
2018-06-29T01:28:48.928Z,0
2018-06-29T01:29:48.967Z,0
2018-06-29T01:30:48.943Z,0
2018-06-29T01:31:48.717Z,0
2018-06-29T01:32:49.021Z,0
2018-06-29T01:33:48.690Z,0
2018-06-29T01:34:48.458Z,0
2018-06-29T01:35:48.962Z,0
2018-06-29T01:36:48.943Z,0
2018-06-29T01:37:48.443Z,0
2018-06-29T01:38:48.684Z,0
2018-06-29T01:39:50.017Z,0
2018-06-29T01:40:48.191Z,0
2018-06-29T01:41:48.700Z,0
2018-06-29T01:42:48.693Z,0
2018-06-29T01:43:48.706Z,0
2018-06-29T01:44:48.949Z,0
2018-06-29T01:45:48.692Z,0
2018-06-29T01:46:48.202Z,0
2018-06-29T01:47:48.725Z,0
2018-06-29T01:48:48.530Z,0
2018-06-29T01:49:48.778Z,0
2018-06-29T01:50:48.702Z,0
2018-06-29T01:51:48.983Z,0
2018-06-29T01:52:48.833Z,0
2018-06-29T01:53:49.041Z,0
2018-06-29T01:54:48.728Z,0
2018-06-29T01:55:48.717Z,0
2018-06-29T01:56:48.480Z,0
2018-06-29T01:57:48.456Z,0
2018-06-29T01:58:48.982Z,0
2018-06-29T01:59:48.961Z,0
2018-06-29T02:00:48.465Z,0
2018-06-29T02:01:48.713Z,0
2018-06-29T02:02:48.732Z,0
2018-06-29T02:03:48.467Z,0
2018-06-29T02:04:48.471Z,0
2018-06-29T02:05:48.477Z,0
2018-06-29T02:06:48.986Z,0
2018-06-29T02:07:48.984Z,0
2018-06-29T02:08:48.740Z,0
2018-06-29T02:09:48.740Z,0
2018-06-29T02:10:49.002Z,0
2018-06-29T02:11:48.473Z,0
2018-06-29T02:12:48.992Z,0
2018-06-29T02:13:48.495Z,0
2018-06-29T02:14:48.736Z,0
2018-06-29T02:15:48.757Z,0
2018-06-29T02:16:48.729Z,0
2018-06-29T02:17:49.018Z,0
2018-06-29T02:18:48.479Z,0
2018-06-29T02:19:48.740Z,0
2018-06-29T02:20:48.727Z,0
2018-06-29T02:21:48.751Z,0
2018-06-29T02:22:48.997Z,0
2018-06-29T02:23:48.831Z,0
2018-06-29T02:24:48.800Z,0
2018-06-29T02:25:48.492Z,0
2018-06-29T02:26:48.755Z,0
2018-06-29T02:27:48.625Z,0
2018-06-29T02:28:48.747Z,0
2018-06-29T02:29:48.506Z,0
2018-06-29T02:30:48.796Z,0
2018-06-29T02:31:48.797Z,0
2018-06-29T02:32:48.770Z,0
2018-06-29T02:33:48.749Z,0
2018-06-29T02:34:49.027Z,0
2018-06-29T02:35:49.003Z,0
2018-06-29T02:36:49.026Z,0
2018-06-29T02:37:48.761Z,0
2018-06-29T02:38:48.524Z,0
2018-06-29T02:39:48.775Z,0
2018-06-29T02:40:48.766Z,0
2018-06-29T02:41:48.764Z,0
2018-06-29T02:42:48.760Z,0
2018-06-29T02:43:48.512Z,0
2018-06-29T02:44:48.775Z,0
2018-06-29T02:45:49.032Z,0
2018-06-29T02:46:49.025Z,0
2018-06-29T02:47:48.869Z,0
2018-06-29T02:48:49.041Z,0
2018-06-29T02:49:49.047Z,0
2018-06-29T02:50:48.514Z,0
2018-06-29T02:51:49.066Z,0
2018-06-29T02:52:48.512Z,0
2018-06-29T02:53:48.777Z,0
2018-06-29T02:54:48.769Z,0
2018-06-29T02:55:48.775Z,0
2018-06-29T02:56:49.030Z,0
2018-06-29T02:57:48.522Z,0
2018-06-29T02:58:49.041Z,4
2018-06-29T02:59:49.052Z,4
2018-06-29T03:00:48.867Z,0
2018-06-29T03:01:48.787Z,0
2018-06-29T03:02:48.795Z,4
2018-06-29T03:03:48.791Z,4
2018-06-29T03:04:49.053Z,0
2018-06-29T03:05:49.149Z,4
2018-06-29T03:06:49.052Z,4
2018-06-29T03:07:49.055Z,4
2018-06-29T03:08:48.802Z,4
2018-06-29T03:09:49.046Z,8
2018-06-29T03:10:49.039Z,8
2018-06-29T03:11:49.072Z,4
2018-06-29T03:12:48.814Z,8
2018-06-29T03:13:48.814Z,8
2018-06-29T03:14:48.820Z,8
2018-06-29T03:15:49.063Z,12
2018-06-29T03:16:49.061Z,12
2018-06-29T03:17:48.796Z,12
2018-06-29T03:18:48.804Z,12
2018-06-29T03:19:48.824Z,16
2018-06-29T03:20:48.804Z,16
2018-06-29T03:21:49.607Z,16
2018-06-29T03:22:49.059Z,20
2018-06-29T03:23:48.822Z,20
2018-06-29T03:24:49.054Z,20
2018-06-29T03:25:49.048Z,24
2018-06-29T03:26:48.546Z,24
2018-06-29T03:27:48.559Z,28
2018-06-29T03:28:49.056Z,28
2018-06-29T03:29:48.822Z,32
2018-06-29T03:30:49.087Z,40
2018-06-29T03:31:48.585Z,44
2018-06-29T03:32:48.590Z,48
2018-06-29T03:33:48.832Z,52
2018-06-29T03:34:48.318Z,56
2018-06-29T03:35:49.029Z,60
2018-06-29T03:36:48.826Z,72
2018-06-29T03:37:49.083Z,80
2018-06-29T03:38:49.081Z,96
2018-06-29T03:39:48.825Z,108
2018-06-29T03:40:49.199Z,120
2018-06-29T03:41:48.840Z,128
2018-06-29T03:42:49.085Z,132
2018-06-29T03:43:48.582Z,132
2018-06-29T03:44:48.857Z,136
2018-06-29T03:45:48.621Z,144
2018-06-29T03:46:49.091Z,148
2018-06-29T03:47:48.840Z,152
2018-06-29T03:48:48.849Z,152
2018-06-29T03:49:48.853Z,152
2018-06-29T03:50:48.843Z,156
2018-06-29T03:51:48.572Z,164
2018-06-29T03:52:49.077Z,172
2018-06-29T03:53:49.080Z,176
2018-06-29T03:54:48.574Z,180
2018-06-29T03:55:48.835Z,180
2018-06-29T03:56:48.613Z,184
2018-06-29T03:57:48.586Z,192
2018-06-29T03:58:48.859Z,200
2018-06-29T03:59:49.085Z,208
2018-06-29T04:00:49.103Z,204
2018-06-29T04:01:48.843Z,208
2018-06-29T04:02:48.844Z,208
2018-06-29T04:03:48.335Z,204
2018-06-29T04:04:48.589Z,204
2018-06-29T04:05:49.087Z,212
2018-06-29T04:06:48.849Z,220
2018-06-29T04:07:49.099Z,228
2018-06-29T04:08:49.096Z,236
2018-06-29T04:09:48.876Z,244
2018-06-29T04:10:48.634Z,256
2018-06-29T04:11:49.327Z,272
2018-06-29T04:12:48.901Z,272
2018-06-29T04:13:48.612Z,260
2018-06-29T04:14:48.855Z,248
2018-06-29T04:15:48.605Z,232
2018-06-29T04:16:48.864Z,216
2018-06-29T04:17:49.112Z,208
2018-06-29T04:18:48.863Z,200
2018-06-29T04:19:49.123Z,192
2018-06-29T04:20:49.126Z,192
2018-06-29T04:21:49.148Z,196
2018-06-29T04:22:49.129Z,204
2018-06-29T04:23:49.109Z,220
2018-06-29T04:24:48.871Z,236
2018-06-29T04:25:49.182Z,252
2018-06-29T04:26:48.870Z,252
2018-06-29T04:27:48.893Z,256
2018-06-29T04:28:48.875Z,256
2018-06-29T04:29:49.117Z,268
2018-06-29T04:30:48.875Z,288
2018-06-29T04:31:49.123Z,316
2018-06-29T04:32:49.403Z,336
2018-06-29T04:33:49.129Z,348
2018-06-29T04:34:49.130Z,352
2018-06-29T04:35:48.876Z,348
2018-06-29T04:36:48.399Z,352
2018-06-29T04:37:48.613Z,368
2018-06-29T04:38:49.134Z,376
2018-06-29T04:39:49.126Z,384
2018-06-29T04:40:48.875Z,404
2018-06-29T04:41:48.625Z,448
2018-06-29T04:42:48.638Z,488
2018-06-29T04:43:48.881Z,512
2018-06-29T04:44:48.629Z,532
2018-06-29T04:45:48.898Z,544
2018-06-29T04:46:48.891Z,552
2018-06-29T04:47:48.901Z,584
2018-06-29T04:48:48.891Z,636
2018-06-29T04:49:49.143Z,712
2018-06-29T04:50:48.893Z,740
2018-06-29T04:51:48.891Z,708
2018-06-29T04:52:48.881Z,660
2018-06-29T04:53:48.884Z,664
2018-06-29T04:54:49.153Z,684
2018-06-29T04:55:48.891Z,700
2018-06-29T04:56:49.159Z,716
2018-06-29T04:57:48.888Z,744
2018-06-29T04:58:48.886Z,792
2018-06-29T04:59:48.885Z,844
2018-06-29T05:00:49.166Z,940
2018-06-29T05:01:48.892Z,1028
2018-06-29T05:02:49.142Z,1100
2018-06-29T05:03:48.649Z,1152
2018-06-29T05:04:49.152Z,1168
2018-06-29T05:05:48.895Z,1140
2018-06-29T05:06:48.634Z,1156
2018-06-29T05:07:49.156Z,1240
2018-06-29T05:08:48.906Z,1352
2018-06-29T05:09:49.137Z,1448
2018-06-29T05:10:48.654Z,1524
2018-06-29T05:11:48.900Z,1644
2018-06-29T05:12:49.178Z,1744
2018-06-29T05:13:48.909Z,1868
2018-06-29T05:14:49.176Z,2020
2018-06-29T05:15:48.938Z,2216
2018-06-29T05:16:48.918Z,2364
2018-06-29T05:17:48.937Z,2448
2018-06-29T05:18:49.178Z,2592
2018-06-29T05:19:49.175Z,2756
2018-06-29T05:20:48.925Z,2984
2018-06-29T05:21:48.939Z,3296
2018-06-29T05:22:49.175Z,3676
2018-06-29T05:23:49.184Z,4068
2018-06-29T05:24:49.176Z,4468
2018-06-29T05:25:48.701Z,4924
2018-06-29T05:26:48.927Z,5384
2018-06-29T05:27:48.671Z,8676
2018-06-29T05:28:49.355Z,10228
2018-06-29T05:29:49.200Z,8032
2018-06-29T05:30:48.759Z,8232
2018-06-29T05:31:49.197Z,11356
2018-06-29T05:32:48.944Z,12516
2018-06-29T05:33:49.190Z,12384
2018-06-29T05:34:48.942Z,12140
2018-06-29T05:35:49.263Z,12524
2018-06-29T05:36:48.947Z,12192
2018-06-29T05:37:48.945Z,8380
2018-06-29T05:38:48.961Z,10296
2018-06-29T05:39:48.693Z,10016
2018-06-29T05:40:48.973Z,8636
2018-06-29T05:41:49.376Z,6600
2018-06-29T05:42:49.227Z,6080
2018-06-29T05:43:49.246Z,5544
2018-06-29T05:44:49.245Z,5000
2018-06-29T05:45:48.976Z,4596
2018-06-29T05:46:48.986Z,4312
2018-06-29T05:47:49.258Z,4012
2018-06-29T05:48:48.993Z,3728
2018-06-29T05:49:49.004Z,3504
2018-06-29T05:50:49.249Z,3428
2018-06-29T05:51:49.095Z,3292
2018-06-29T05:52:49.249Z,3096
2018-06-29T05:53:49.008Z,2860
2018-06-29T05:54:49.008Z,2652
2018-06-29T05:55:49.274Z,2676
2018-06-29T05:56:49.293Z,2736
2018-06-29T05:57:49.023Z,2700
2018-06-29T05:58:49.288Z,2736
2018-06-29T05:59:49.019Z,2796
2018-06-29T06:00:49.290Z,2792
2018-06-29T06:01:49.289Z,2744
2018-06-29T06:02:49.286Z,2648
2018-06-29T06:03:49.062Z,2512
2018-06-29T06:04:49.434Z,2408
2018-06-29T06:05:49.361Z,2436
2018-06-29T06:06:49.319Z,2560
2018-06-29T06:07:49.317Z,2636
2018-06-29T06:08:49.063Z,2556
2018-06-29T06:09:49.304Z,2460
2018-06-29T06:10:49.317Z,2356
2018-06-29T06:11:49.338Z,2392
2018-06-29T06:12:49.064Z,2524
2018-06-29T06:13:49.335Z,2600
2018-06-29T06:23:59.155Z,4792
2018-06-29T06:24:59.415Z,4880
2018-06-29T06:25:59.669Z,4848
2018-06-29T06:26:59.675Z,4520
2018-06-29T06:27:59.171Z,3972
2018-06-29T06:28:59.429Z,3620
2018-06-29T06:29:59.416Z,3576
2018-06-29T06:30:59.670Z,3560
2018-06-29T06:31:59.682Z,3612
2018-06-29T06:32:59.430Z,3644
2018-06-29T06:33:59.420Z,3804
2018-06-29T06:34:59.199Z,4104
2018-06-29T06:35:59.424Z,4452
2018-06-29T06:36:59.684Z,4788
2018-06-29T06:37:59.670Z,5156
2018-06-29T06:38:59.178Z,5512
2018-06-29T06:39:59.434Z,5944
2018-06-29T06:40:59.688Z,6408
2018-06-29T06:41:59.432Z,7092
2018-06-29T06:42:59.424Z,7936
2018-06-29T06:43:59.689Z,8552
2018-06-29T06:44:59.168Z,8728
2018-06-29T06:45:59.686Z,8832
2018-06-29T06:46:59.483Z,11844
2018-06-29T06:47:59.438Z,13676
2018-06-29T06:48:59.726Z,14476
2018-06-29T06:49:59.446Z,11908
2018-06-29T06:50:59.439Z,15452
2018-06-29T06:51:59.718Z,15520
2018-06-29T06:52:59.192Z,11572
2018-06-29T06:53:59.718Z,9852
2018-06-29T06:54:59.703Z,10124
2018-06-29T06:55:59.457Z,9176
2018-06-29T06:56:59.740Z,9364
2018-06-29T06:57:59.468Z,8676
2018-06-29T06:58:59.730Z,8712
2018-06-29T06:59:59.216Z,8760
2018-06-29T07:00:59.480Z,8952
2018-06-29T07:01:59.244Z,9200
2018-06-29T07:02:59.745Z,12812
2018-06-29T07:03:59.291Z,10296
2018-06-29T07:04:59.754Z,10744
2018-06-29T07:05:59.249Z,14816
2018-06-29T07:06:59.762Z,13548
2018-06-29T07:07:59.523Z,15840
2018-06-29T07:08:59.522Z,13016
2018-06-29T07:09:59.780Z,11476
2018-06-29T07:10:59.528Z,10472
2018-06-29T07:11:59.788Z,10420
2018-06-29T07:12:59.283Z,11276
2018-06-29T07:13:59.628Z,12704
2018-06-29T07:14:59.791Z,16032
2018-06-29T07:15:59.548Z,14876
2018-06-29T07:16:59.544Z,16512
2018-06-29T07:17:59.806Z,17696
2018-06-29T07:18:59.809Z,17088
2018-06-29T07:19:59.328Z,16992
2018-06-29T07:20:59.569Z,16096
2018-06-29T07:21:59.574Z,13536
2018-06-29T07:22:59.587Z,16864
2018-06-29T07:23:59.585Z,18464
2018-06-29T07:24:59.844Z,18336
2018-06-29T07:25:59.346Z,17120
2018-06-29T07:26:59.629Z,11908
2018-06-29T07:27:59.860Z,10680
2018-06-29T07:28:59.106Z,9484
2018-06-29T07:29:59.451Z,9084
2018-06-29T07:30:59.384Z,8896
2018-06-29T07:31:59.648Z,8920
2018-06-29T07:32:59.637Z,9100
2018-06-29T07:33:59.891Z,9316
2018-06-29T07:34:59.663Z,9424
2018-06-29T07:35:59.920Z,9396
2018-06-29T07:36:59.667Z,9208
2018-06-29T07:37:59.974Z,8828
2018-06-29T07:38:59.432Z,8368
2018-06-29T07:39:59.193Z,7872
2018-06-29T07:40:59.188Z,7308
2018-06-29T07:41:59.435Z,6676
2018-06-29T07:42:59.453Z,6120
2018-06-29T07:43:59.465Z,5648
2018-06-29T07:44:59.705Z,5464
2018-06-29T07:45:59.716Z,5656
2018-06-29T07:46:59.713Z,5772
2018-06-29T07:47:59.995Z,5760
2018-06-29T07:48:59.998Z,5740
2018-06-29T07:49:59.732Z,5768
2018-06-29T07:50:59.739Z,5824
2018-06-29T07:51:59.738Z,6056
2018-06-29T07:52:59.855Z,6500
2018-06-29T07:53:59.502Z,7212
2018-06-29T07:54:59.773Z,8040
2018-06-29T07:55:59.754Z,8796
2018-06-29T07:56:59.511Z,9336
2018-06-29T07:57:59.546Z,10024
2018-06-29T07:59:00.173Z,10788
2018-06-29T07:59:59.780Z,11680
2018-06-29T08:00:59.789Z,12344
2018-06-29T08:01:59.265Z,12676
2018-06-29T08:03:00.043Z,12088
2018-06-29T08:04:00.513Z,11176
2018-06-29T08:04:59.788Z,10736
2018-06-29T08:05:59.803Z,10704
2018-06-29T08:06:59.544Z,10472
2018-06-29T08:07:59.793Z,10324
2018-06-29T08:08:59.798Z,10208
2018-06-29T08:10:00.057Z,10188
2018-06-29T08:10:59.817Z,10044
2018-06-29T08:11:59.559Z,9612
2018-06-29T08:12:59.567Z,9228
2018-06-29T08:13:59.817Z,9100
2018-06-29T08:14:59.586Z,9132
2018-06-29T08:15:59.839Z,9188
2018-06-29T08:17:00.443Z,9356
2018-06-29T08:17:59.852Z,9720
2018-06-29T08:19:00.115Z,10044
2018-06-29T08:19:59.595Z,10168
2018-06-29T08:20:59.861Z,10116
2018-06-29T08:21:59.606Z,9852
2018-06-29T08:22:59.622Z,9632
2018-06-29T08:23:59.872Z,9284
2018-06-29T08:24:59.917Z,8976
2018-06-29T08:25:59.632Z,8832
2018-06-29T08:26:59.877Z,8676
2018-06-29T08:27:59.873Z,8588
2018-06-29T08:28:59.947Z,8428
2018-06-29T08:30:00.172Z,8264
2018-06-29T08:30:59.904Z,8264
2018-06-29T08:32:00.152Z,8260
2018-06-29T08:32:59.904Z,8200
2018-06-29T08:33:59.656Z,8356
2018-06-29T08:34:59.668Z,8648
2018-06-29T08:35:59.933Z,8696
2018-06-29T08:36:59.917Z,8652
2018-06-29T08:38:00.182Z,8668
2018-06-29T08:38:59.659Z,8736
2018-06-29T08:39:59.902Z,8668
2018-06-29T08:41:00.183Z,8600
2018-06-29T08:41:59.930Z,8540
2018-06-29T08:42:59.672Z,8208
2018-06-29T08:43:59.957Z,7868
2018-06-29T08:45:00.196Z,7616
2018-06-29T08:45:59.955Z,7616
2018-06-29T08:47:00.270Z,7668
2018-06-29T08:47:59.959Z,7532
2018-06-29T08:49:00.228Z,7428
2018-06-29T08:49:59.971Z,7340
2018-06-29T08:51:00.213Z,7316
2018-06-29T08:51:59.983Z,7344
2018-06-29T08:52:59.985Z,7244
2018-06-29T08:53:59.978Z,6976
2018-06-29T08:55:00.114Z,6736
2018-06-29T08:55:59.752Z,6360
2018-06-29T08:56:59.990Z,5980
2018-06-29T08:57:59.992Z,5840
2018-06-29T08:59:00.406Z,5900
2018-06-29T09:00:00.252Z,5880
2018-06-29T09:00:59.498Z,5784
2018-06-29T09:02:00.016Z,5688
2018-06-29T09:03:00.003Z,5932
2018-06-29T09:04:00.013Z,6452
2018-06-29T09:05:00.152Z,7020
2018-06-29T09:06:00.020Z,7564
2018-06-29T09:06:59.770Z,7988
2018-06-29T09:08:00.292Z,8464
2018-06-29T09:08:59.780Z,9056
2018-06-29T09:09:59.789Z,9556
2018-06-29T09:10:59.904Z,9912
2018-06-29T09:12:00.058Z,10176
2018-06-29T09:12:59.794Z,10592
2018-06-29T09:14:00.299Z,10968
2018-06-29T09:14:59.808Z,11232
2018-06-29T09:15:59.818Z,11708
2018-06-29T09:17:00.060Z,12148
2018-06-29T09:17:59.816Z,12484
2018-06-29T09:18:59.869Z,13464
2018-06-29T09:19:59.840Z,14648
2018-06-29T09:21:00.080Z,13908
2018-06-29T09:22:00.091Z,14360
2018-06-29T09:22:59.835Z,13884
2018-06-29T09:23:59.834Z,13712
2018-06-29T09:24:59.905Z,13616
2018-06-29T09:26:00.113Z,13432
2018-06-29T09:26:59.845Z,14032
2018-06-29T09:28:00.109Z,12900
2018-06-29T09:28:59.852Z,12268
2018-06-29T09:30:00.598Z,11876
2018-06-29T09:31:00.123Z,11712
2018-06-29T09:32:00.126Z,11532
2018-06-29T09:32:59.944Z,11384
2018-06-29T09:33:59.888Z,11344
2018-06-29T09:35:00.146Z,11032
2018-06-29T09:35:59.633Z,10840
2018-06-29T09:37:00.395Z,10580
2018-06-29T09:38:00.422Z,10176
2018-06-29T09:39:00.417Z,9900
2018-06-29T09:39:59.908Z,9772
2018-06-29T09:41:00.162Z,9732
2018-06-29T09:42:00.175Z,9856
2018-06-29T09:43:00.176Z,10012
2018-06-29T09:44:00.176Z,10304
2018-06-29T09:44:59.953Z,10648
2018-06-29T09:45:59.928Z,10964
2018-06-29T09:47:00.198Z,11124
2018-06-29T09:48:00.127Z,11072
2018-06-29T09:49:00.034Z,10956
2018-06-29T09:49:59.974Z,10760
2018-06-29T09:51:00.241Z,10472
2018-06-29T09:52:00.227Z,10060
2018-06-29T09:53:00.226Z,9752
2018-06-29T09:54:00.087Z,9424
2018-06-29T09:55:00.246Z,8936
2018-06-29T09:55:59.973Z,8676
2018-06-29T09:57:00.252Z,8612
2018-06-29T09:58:00.258Z,8564
2018-06-29T09:59:00.511Z,8640
2018-06-29T10:00:00.742Z,8932
2018-06-29T10:01:03.004Z,9300
2018-06-29T10:02:00.260Z,9604
2018-06-29T10:03:00.506Z,9980
2018-06-29T10:04:00.287Z,10308
2018-06-29T10:05:00.019Z,10584
2018-06-29T10:06:00.278Z,10804
2018-06-29T10:07:00.294Z,10936
2018-06-29T10:08:00.036Z,11016
2018-06-29T10:09:00.572Z,11168
2018-06-29T10:10:00.048Z,11388
2018-06-29T10:11:00.301Z,11608
2018-06-29T10:12:00.565Z,11856
2018-06-29T10:13:00.309Z,12080
2018-06-29T10:14:00.323Z,12368
2018-06-29T10:15:00.563Z,12748
2018-06-29T10:16:00.569Z,13556
2018-06-29T10:17:00.345Z,13812
2018-06-29T10:18:00.336Z,14420
2018-06-29T10:19:00.345Z,14772
2018-06-29T10:20:01.324Z,15044
2018-06-29T10:21:00.342Z,15208
2018-06-29T10:22:00.169Z,14280
2018-06-29T10:53:26.397Z,9804
2018-06-29T10:54:26.658Z,9704
2018-06-29T10:55:26.391Z,9672
2018-06-29T10:56:26.149Z,9560
2018-06-29T10:57:26.397Z,9552
2018-06-29T10:58:26.673Z,9492
2018-06-29T10:59:26.182Z,9372
2018-06-29T11:00:26.164Z,9308
2018-06-29T11:01:26.707Z,9340
2018-06-29T11:02:26.667Z,9356
2018-06-29T11:03:26.416Z,9324
2018-06-29T11:04:26.423Z,9172
2018-06-29T11:05:26.502Z,8948
2018-06-29T11:06:26.490Z,8972
2018-06-29T11:07:26.166Z,8988
2018-06-29T11:08:26.193Z,8948
2018-06-29T11:09:26.441Z,8936
2018-06-29T11:10:26.434Z,8892
2018-06-29T11:11:26.437Z,8812
2018-06-29T11:12:26.450Z,8632
2018-06-29T11:13:26.443Z,8552
2018-06-29T11:14:26.442Z,8480
2018-06-29T11:15:26.735Z,8404
2018-06-29T11:16:26.739Z,8400
2018-06-29T11:17:26.481Z,8444
2018-06-29T11:18:26.208Z,8392
2018-06-29T11:19:25.972Z,8308
2018-06-29T11:20:26.218Z,8328
2018-06-29T11:21:26.479Z,8296
2018-06-29T11:22:26.235Z,8292
2018-06-29T11:23:26.735Z,8228
2018-06-29T11:24:26.745Z,8192
2018-06-29T11:25:26.555Z,8196
2018-06-29T11:26:26.515Z,8208
2018-06-29T11:27:26.531Z,8228
2018-06-29T11:28:26.535Z,8196
2018-06-29T11:29:26.529Z,8148
2018-06-29T11:30:26.738Z,8172
2018-06-29T11:31:26.520Z,8196
2018-06-29T11:32:26.800Z,8232
2018-06-29T11:33:26.293Z,8268
2018-06-29T11:34:26.545Z,8272
2018-06-29T11:35:26.580Z,8280
2018-06-29T11:36:26.299Z,8288
2018-06-29T11:37:26.570Z,8284
2018-06-29T11:38:27.612Z,8228
2018-06-29T11:39:26.819Z,8232
2018-06-29T11:40:26.611Z,8220
2018-06-29T11:41:26.319Z,8240
2018-06-29T11:42:26.901Z,8356
2018-06-29T11:43:26.583Z,8440
2018-06-29T11:44:26.859Z,8484
2018-06-29T11:45:26.119Z,8368
2018-06-29T11:46:26.104Z,8272
2018-06-29T11:47:26.625Z,8284
2018-06-29T11:48:26.394Z,8388
2018-06-29T11:49:26.371Z,8484
2018-06-29T11:50:26.384Z,8628
2018-06-29T11:51:27.083Z,8644
2018-06-29T11:52:26.887Z,9004
2018-06-29T11:53:26.880Z,9156
2018-06-29T11:54:26.639Z,9028
2018-06-29T11:55:26.650Z,8764
2018-06-29T11:56:26.403Z,8580
2018-06-29T11:57:26.787Z,8576
2018-06-29T11:58:27.456Z,8608
2018-06-29T11:59:26.687Z,8828
2018-06-29T12:00:26.941Z,9064
2018-06-29T12:01:26.461Z,9232
2018-06-29T12:02:26.944Z,9288
2018-06-29T12:03:26.431Z,9328
2018-06-29T12:04:26.984Z,9364
2018-06-29T12:05:26.442Z,9532
2018-06-29T12:06:26.429Z,9516
2018-06-29T12:07:26.445Z,9612
2018-06-29T12:08:26.454Z,9772
2018-06-29T12:09:26.700Z,9620
2018-06-29T12:10:26.759Z,9704
2018-06-29T12:11:27.002Z,10044
2018-06-29T12:12:26.475Z,10076
2018-06-29T12:13:26.484Z,10224
2018-06-29T12:14:26.502Z,10328
2018-06-29T12:15:26.496Z,8744
2018-06-29T12:16:27.025Z,8552
2018-06-29T12:17:26.786Z,8164
2018-06-29T12:18:26.784Z,7768
2018-06-29T12:19:26.793Z,9520
2018-06-29T12:20:26.528Z,8316
2018-06-29T12:21:26.508Z,8876
2018-06-29T12:22:26.523Z,7232
2018-06-29T12:23:27.131Z,7948
2018-06-29T12:24:26.584Z,7620
2018-06-29T12:25:27.004Z,8524
2018-06-29T12:26:26.846Z,8948
2018-06-29T12:27:26.574Z,7160
2018-06-29T12:28:26.813Z,7112
2018-06-29T12:29:26.561Z,9052
2018-06-29T12:30:26.573Z,9224
2018-06-29T12:31:26.568Z,9260
2018-06-29T12:32:26.849Z,9288
2018-06-29T12:33:26.715Z,9244
2018-06-29T12:34:26.840Z,9104
2018-06-29T12:35:26.594Z,9064
2018-06-29T12:36:26.878Z,9076
2018-06-29T12:37:26.853Z,9176
2018-06-29T12:38:26.869Z,7588
2018-06-29T12:39:26.895Z,9636
2018-06-29T12:40:26.896Z,9688
2018-06-29T12:41:26.882Z,8316
2018-06-29T12:42:26.382Z,10052
2018-06-29T12:43:26.913Z,10372
2018-06-29T12:44:26.903Z,10536
2018-06-29T12:45:26.656Z,11416
2018-06-29T12:46:27.178Z,11928
2018-06-29T12:47:26.926Z,12168
2018-06-29T12:48:27.190Z,11796
2018-06-29T12:49:26.447Z,10684
2018-06-29T12:50:27.230Z,11288
2018-06-29T12:51:27.329Z,11924
2018-06-29T12:52:26.719Z,11620
2018-06-29T12:53:27.518Z,11204
2018-06-29T12:54:26.941Z,10952
2018-06-29T12:55:27.218Z,11728
2018-06-29T12:56:26.954Z,11796
2018-06-29T12:57:27.546Z,12520
2018-06-29T12:58:27.072Z,12840
2018-06-29T12:59:26.464Z,13336
2018-06-29T13:00:26.760Z,13812
2018-06-29T13:01:27.027Z,13356
2018-06-29T13:02:27.260Z,12864
2018-06-29T13:03:26.775Z,12428
2018-06-29T13:04:26.518Z,12264
2018-06-29T13:05:27.729Z,12196
2018-06-29T13:06:27.281Z,12336
2018-06-29T13:07:27.309Z,12624
2018-06-29T13:08:27.472Z,14228
2018-06-29T13:09:27.024Z,12540
2018-06-29T13:10:26.528Z,12164
2018-06-29T13:11:27.041Z,11804
2018-06-29T13:12:27.298Z,11548
2018-06-29T13:13:27.037Z,11328
2018-06-29T13:14:27.321Z,10968
2018-06-29T13:15:27.446Z,10540
2018-06-29T13:16:27.318Z,10208
2018-06-29T13:17:27.323Z,9956
2018-06-29T13:18:27.084Z,9848
2018-06-29T13:19:26.854Z,9828
2018-06-29T13:20:27.346Z,9516
2018-06-29T13:21:26.842Z,9540
2018-06-29T13:22:27.110Z,8724
2018-06-29T13:23:27.123Z,8488
2018-06-29T13:24:26.872Z,8396
2018-06-29T13:25:27.307Z,8308
2018-06-29T13:26:26.887Z,8264
2018-06-29T13:27:27.385Z,8184
2018-06-29T13:28:27.625Z,8160
2018-06-29T13:29:26.664Z,8208
2018-06-29T13:30:27.138Z,8076
2018-06-29T13:31:27.158Z,8044
2018-06-29T13:32:26.905Z,9548
2018-06-29T13:33:26.907Z,9636
2018-06-29T13:34:26.680Z,9396
2018-06-29T13:35:27.182Z,8616
2018-06-29T13:36:27.191Z,7700
2018-06-29T13:37:27.194Z,7308
2018-06-29T13:38:26.940Z,7112
2018-06-29T13:39:27.334Z,6892
2018-06-29T13:40:27.261Z,6736
2018-06-29T13:41:27.206Z,7072
2018-06-29T13:42:26.975Z,8036
2018-06-29T13:43:26.705Z,7428
2018-06-29T13:44:27.217Z,7452
2018-06-29T13:45:27.488Z,6828
2018-06-29T13:46:27.247Z,6844
2018-06-29T13:47:27.252Z,7264
2018-06-29T13:48:26.985Z,8392
2018-06-29T13:49:26.726Z,7548
2018-06-29T13:50:27.256Z,8528
2018-06-29T13:51:27.258Z,8812
2018-06-29T13:52:27.544Z,8576
2018-06-29T13:53:27.533Z,9492
2018-06-29T13:54:27.832Z,9604
2018-06-29T13:55:27.583Z,9540
2018-06-29T13:56:27.552Z,9140
2018-06-29T13:57:27.553Z,8520
2018-06-29T13:58:27.040Z,8412
2018-06-29T13:59:27.269Z,8572
2018-06-29T14:00:27.071Z,8204
2018-06-29T14:01:26.841Z,7736
2018-06-29T14:02:27.413Z,7652
2018-06-29T14:03:27.319Z,8188
2018-06-29T14:04:27.102Z,8872
2018-06-29T14:05:27.338Z,8084
2018-06-29T14:06:27.340Z,8136
2018-06-29T14:07:27.332Z,8512
2018-06-29T14:08:27.364Z,8696
2018-06-29T14:09:27.102Z,8652
2018-06-29T14:10:27.113Z,8628
2018-06-29T14:11:27.114Z,8752
2018-06-29T14:12:27.143Z,8824
2018-06-29T14:13:27.379Z,9220
2018-06-29T14:14:27.422Z,9036
2018-06-29T14:15:27.401Z,9168
2018-06-29T14:16:27.394Z,8528
2018-06-29T14:17:27.670Z,8908